sensor_id;sensor_type;location;lat;lon;timestamp;pressure;altitude;pressure_sealevel;temperature
33877;BMP180;20166;51.738;7.158;2023-10-31T00:01:23;98848.00;;;14.10
33877;BMP180;20166;51.738;7.158;2023-10-31T00:04:10;98851.00;;;14.00
33877;BMP180;20166;51.738;7.158;2023-10-31T00:06:56;98850.00;;;14.00
33877;BMP180;20166;51.738;7.158;2023-10-31T00:09:43;98858.00;;;14.00
33877;BMP180;20166;51.738;7.158;2023-10-31T00:12:32;98843.00;;;14.00
33877;BMP180;20166;51.738;7.158;2023-10-31T00:15:18;98854.00;;;14.00
33877;BMP180;20166;51.738;7.158;2023-10-31T00:18:05;98853.00;;;13.90
33877;BMP180;20166;51.738;7.158;2023-10-31T00:20:51;98862.00;;;14.00
33877;BMP180;20166;51.738;7.158;2023-10-31T00:23:43;98859.00;;;14.00
33877;BMP180;20166;51.738;7.158;2023-10-31T00:26:29;98852.00;;;14.00
33877;BMP180;20166;51.738;7.158;2023-10-31T00:29:17;98859.00;;;13.90
33877;BMP180;20166;51.738;7.158;2023-10-31T00:32:03;98868.00;;;13.80
33877;BMP180;20166;51.738;7.158;2023-10-31T00:34:50;98864.00;;;13.90
33877;BMP180;20166;51.738;7.158;2023-10-31T00:37:37;98873.00;;;13.80
33877;BMP180;20166;51.738;7.158;2023-10-31T00:40:24;98894.00;;;13.80
33877;BMP180;20166;51.738;7.158;2023-10-31T00:43:11;98905.00;;;13.70
33877;BMP180;20166;51.738;7.158;2023-10-31T00:45:59;98913.00;;;13.60
33877;BMP180;20166;51.738;7.158;2023-10-31T00:48:45;98927.00;;;13.50
33877;BMP180;20166;51.738;7.158;2023-10-31T00:51:32;98936.00;;;13.30
33877;BMP180;20166;51.738;7.158;2023-10-31T00:54:18;98942.00;;;13.00
33877;BMP180;20166;51.738;7.158;2023-10-31T00:57:04;98937.00;;;12.80
33877;BMP180;20166;51.738;7.158;2023-10-31T00:59:51;98937.00;;;12.80
33877;BMP180;20166;51.738;7.158;2023-10-31T01:02:39;98949.00;;;12.60
33877;BMP180;20166;51.738;7.158;2023-10-31T01:05:25;98943.00;;;12.50
33877;BMP180;20166;51.738;7.158;2023-10-31T01:08:14;98959.00;;;12.50
33877;BMP180;20166;51.738;7.158;2023-10-31T01:11:01;98964.00;;;12.50
33877;BMP180;20166;51.738;7.158;2023-10-31T01:13:47;98981.00;;;12.50
33877;BMP180;20166;51.738;7.158;2023-10-31T01:16:33;98979.00;;;12.50
33877;BMP180;20166;51.738;7.158;2023-10-31T01:19:21;98987.00;;;12.40
33877;BMP180;20166;51.738;7.158;2023-10-31T01:22:08;98987.00;;;12.40
33877;BMP180;20166;51.738;7.158;2023-10-31T01:24:54;99000.00;;;12.40
33877;BMP180;20166;51.738;7.158;2023-10-31T01:27:41;98995.00;;;12.40
33877;BMP180;20166;51.738;7.158;2023-10-31T01:30:28;99006.00;;;12.40
33877;BMP180;20166;51.738;7.158;2023-10-31T01:33:15;99017.00;;;12.50
33877;BMP180;20166;51.738;7.158;2023-10-31T01:36:04;99022.00;;;12.40
33877;BMP180;20166;51.738;7.158;2023-10-31T01:38:50;99023.00;;;12.40
33877;BMP180;20166;51.738;7.158;2023-10-31T01:41:37;99037.00;;;12.30
33877;BMP180;20166;51.738;7.158;2023-10-31T01:44:23;99042.00;;;12.30
33877;BMP180;20166;51.738;7.158;2023-10-31T01:47:09;99042.00;;;12.30
33877;BMP180;20166;51.738;7.158;2023-10-31T01:49:55;99051.00;;;12.30
33877;BMP180;20166;51.738;7.158;2023-10-31T01:52:44;99071.00;;;12.20
33877;BMP180;20166;51.738;7.158;2023-10-31T01:55:30;99070.00;;;12.20
33877;BMP180;20166;51.738;7.158;2023-10-31T01:58:17;99076.00;;;12.20
33877;BMP180;20166;51.738;7.158;2023-10-31T02:01:07;99088.00;;;12.20
33877;BMP180;20166;51.738;7.158;2023-10-31T02:03:53;99095.00;;;12.20
33877;BMP180;20166;51.738;7.158;2023-10-31T02:06:40;99101.00;;;12.20
33877;BMP180;20166;51.738;7.158;2023-10-31T02:09:27;99105.00;;;12.20
33877;BMP180;20166;51.738;7.158;2023-10-31T02:12:33;99107.00;;;12.20
33877;BMP180;20166;51.738;7.158;2023-10-31T02:15:19;99114.00;;;12.20
33877;BMP180;20166;51.738;7.158;2023-10-31T02:18:06;99108.00;;;12.10
33877;BMP180;20166;51.738;7.158;2023-10-31T02:20:53;99110.00;;;12.00
33877;BMP180;20166;51.738;7.158;2023-10-31T02:23:41;99117.00;;;12.10
33877;BMP180;20166;51.738;7.158;2023-10-31T02:26:31;99115.00;;;12.00
33877;BMP180;20166;51.738;7.158;2023-10-31T02:29:17;99116.00;;;12.00
33877;BMP180;20166;51.738;7.158;2023-10-31T02:32:04;99113.00;;;12.00
33877;BMP180;20166;51.738;7.158;2023-10-31T02:34:50;99122.00;;;11.90
33877;BMP180;20166;51.738;7.158;2023-10-31T02:37:37;99111.00;;;11.90
33877;BMP180;20166;51.738;7.158;2023-10-31T02:40:24;99122.00;;;11.80
33877;BMP180;20166;51.738;7.158;2023-10-31T02:43:11;99134.00;;;11.80
33877;BMP180;20166;51.738;7.158;2023-10-31T02:45:57;99127.00;;;11.90
33877;BMP180;20166;51.738;7.158;2023-10-31T02:48:44;99128.00;;;11.90
33877;BMP180;20166;51.738;7.158;2023-10-31T02:51:30;99130.00;;;11.90
33877;BMP180;20166;51.738;7.158;2023-10-31T02:54:16;99124.00;;;11.90
33877;BMP180;20166;51.738;7.158;2023-10-31T02:57:04;99121.00;;;12.00
33877;BMP180;20166;51.738;7.158;2023-10-31T02:59:51;99128.00;;;12.00
33877;BMP180;20166;51.738;7.158;2023-10-31T03:02:37;99141.00;;;12.00
33877;BMP180;20166;51.738;7.158;2023-10-31T03:05:23;99144.00;;;12.00
33877;BMP180;20166;51.738;7.158;2023-10-31T03:08:10;99152.00;;;12.00
33877;BMP180;20166;51.738;7.158;2023-10-31T03:10:57;99145.00;;;12.00
33877;BMP180;20166;51.738;7.158;2023-10-31T03:13:45;99137.00;;;11.90
33877;BMP180;20166;51.738;7.158;2023-10-31T03:16:31;99142.00;;;11.90
33877;BMP180;20166;51.738;7.158;2023-10-31T03:19:18;99147.00;;;12.00
33877;BMP180;20166;51.738;7.158;2023-10-31T03:22:04;99147.00;;;11.90
33877;BMP180;20166;51.738;7.158;2023-10-31T03:24:51;99152.00;;;11.90
33877;BMP180;20166;51.738;7.158;2023-10-31T03:27:37;99156.00;;;11.90
33877;BMP180;20166;51.738;7.158;2023-10-31T03:30:25;99161.00;;;11.90
33877;BMP180;20166;51.738;7.158;2023-10-31T03:33:11;99149.00;;;11.90
33877;BMP180;20166;51.738;7.158;2023-10-31T03:35:58;99157.00;;;11.90
33877;BMP180;20166;51.738;7.158;2023-10-31T03:38:44;99157.00;;;11.90
33877;BMP180;20166;51.738;7.158;2023-10-31T03:41:31;99149.00;;;11.90
33877;BMP180;20166;51.738;7.158;2023-10-31T03:44:17;99154.00;;;12.00
33877;BMP180;20166;51.738;7.158;2023-10-31T03:47:05;99152.00;;;12.00
33877;BMP180;20166;51.738;7.158;2023-10-31T03:49:51;99157.00;;;12.00
33877;BMP180;20166;51.738;7.158;2023-10-31T03:52:38;99165.00;;;12.00
33877;BMP180;20166;51.738;7.158;2023-10-31T03:55:24;99163.00;;;12.00
33877;BMP180;20166;51.738;7.158;2023-10-31T03:58:10;99165.00;;;12.00
33877;BMP180;20166;51.738;7.158;2023-10-31T04:00:57;99154.00;;;11.90
33877;BMP180;20166;51.738;7.158;2023-10-31T04:03:44;99166.00;;;12.00
33877;BMP180;20166;51.738;7.158;2023-10-31T04:06:31;99164.00;;;12.00
33877;BMP180;20166;51.738;7.158;2023-10-31T04:09:17;99172.00;;;11.90
33877;BMP180;20166;51.738;7.158;2023-10-31T04:12:04;99176.00;;;12.00
33877;BMP180;20166;51.738;7.158;2023-10-31T04:14:50;99176.00;;;12.00
33877;BMP180;20166;51.738;7.158;2023-10-31T04:17:37;99167.00;;;12.00
33877;BMP180;20166;51.738;7.158;2023-10-31T04:20:25;99163.00;;;11.90
33877;BMP180;20166;51.738;7.158;2023-10-31T04:23:11;99169.00;;;12.00
33877;BMP180;20166;51.738;7.158;2023-10-31T04:25:58;99180.00;;;12.00
33877;BMP180;20166;51.738;7.158;2023-10-31T04:28:44;99185.00;;;12.00
33877;BMP180;20166;51.738;7.158;2023-10-31T04:31:31;99184.00;;;12.10
33877;BMP180;20166;51.738;7.158;2023-10-31T04:34:28;99189.00;;;12.00
33877;BMP180;20166;51.738;7.158;2023-10-31T04:37:15;99184.00;;;12.00
33877;BMP180;20166;51.738;7.158;2023-10-31T04:40:01;99177.00;;;12.00
33877;BMP180;20166;51.738;7.158;2023-10-31T04:42:48;99184.00;;;12.00
33877;BMP180;20166;51.738;7.158;2023-10-31T04:45:34;99180.00;;;12.00
33877;BMP180;20166;51.738;7.158;2023-10-31T04:48:21;99183.00;;;12.00
33877;BMP180;20166;51.738;7.158;2023-10-31T04:51:07;99186.00;;;12.00
33877;BMP180;20166;51.738;7.158;2023-10-31T04:53:55;99194.00;;;12.00
33877;BMP180;20166;51.738;7.158;2023-10-31T04:56:41;99195.00;;;12.00
33877;BMP180;20166;51.738;7.158;2023-10-31T04:59:28;99190.00;;;12.00
33877;BMP180;20166;51.738;7.158;2023-10-31T05:02:14;99187.00;;;12.00
33877;BMP180;20166;51.738;7.158;2023-10-31T05:05:02;99200.00;;;12.00
33877;BMP180;20166;51.738;7.158;2023-10-31T05:07:49;99209.00;;;12.10
33877;BMP180;20166;51.738;7.158;2023-10-31T05:10:37;99221.00;;;12.10
33877;BMP180;20166;51.738;7.158;2023-10-31T05:13:23;99211.00;;;12.00
33877;BMP180;20166;51.738;7.158;2023-10-31T05:16:10;99216.00;;;12.00
33877;BMP180;20166;51.738;7.158;2023-10-31T05:18:57;99219.00;;;12.00
33877;BMP180;20166;51.738;7.158;2023-10-31T05:21:45;99228.00;;;11.90
33877;BMP180;20166;51.738;7.158;2023-10-31T05:24:31;99225.00;;;11.90
33877;BMP180;20166;51.738;7.158;2023-10-31T05:27:19;99236.00;;;11.90
33877;BMP180;20166;51.738;7.158;2023-10-31T05:30:06;99233.00;;;11.90
33877;BMP180;20166;51.738;7.158;2023-10-31T05:32:53;99228.00;;;11.90
33877;BMP180;20166;51.738;7.158;2023-10-31T05:35:39;99242.00;;;11.90
33877;BMP180;20166;51.738;7.158;2023-10-31T05:38:26;99246.00;;;11.80
33877;BMP180;20166;51.738;7.158;2023-10-31T05:41:13;99245.00;;;11.80
33877;BMP180;20166;51.738;7.158;2023-10-31T05:44:01;99254.00;;;11.80
33877;BMP180;20166;51.738;7.158;2023-10-31T05:46:48;99263.00;;;11.70
33877;BMP180;20166;51.738;7.158;2023-10-31T05:49:34;99273.00;;;11.80
33877;BMP180;20166;51.738;7.158;2023-10-31T05:52:21;99266.00;;;11.90
33877;BMP180;20166;51.738;7.158;2023-10-31T05:55:07;99274.00;;;11.80
33877;BMP180;20166;51.738;7.158;2023-10-31T05:57:54;99276.00;;;11.90
33877;BMP180;20166;51.738;7.158;2023-10-31T06:00:42;99285.00;;;11.90
33877;BMP180;20166;51.738;7.158;2023-10-31T06:03:28;99291.00;;;11.90
33877;BMP180;20166;51.738;7.158;2023-10-31T06:06:14;99290.00;;;11.90
33877;BMP180;20166;51.738;7.158;2023-10-31T06:09:00;99305.00;;;11.90
33877;BMP180;20166;51.738;7.158;2023-10-31T06:11:47;99311.00;;;11.80
33877;BMP180;20166;51.738;7.158;2023-10-31T06:14:33;99314.00;;;11.80
33877;BMP180;20166;51.738;7.158;2023-10-31T06:17:21;99330.00;;;11.80
33877;BMP180;20166;51.738;7.158;2023-10-31T06:20:08;99332.00;;;11.70
33877;BMP180;20166;51.738;7.158;2023-10-31T06:22:55;99334.00;;;11.70
33877;BMP180;20166;51.738;7.158;2023-10-31T06:25:41;99338.00;;;11.70
33877;BMP180;20166;51.738;7.158;2023-10-31T06:28:27;99350.00;;;11.70
33877;BMP180;20166;51.738;7.158;2023-10-31T06:31:14;99348.00;;;11.70
33877;BMP180;20166;51.738;7.158;2023-10-31T06:34:02;99351.00;;;11.70
33877;BMP180;20166;51.738;7.158;2023-10-31T06:36:48;99365.00;;;11.60
33877;BMP180;20166;51.738;7.158;2023-10-31T06:39:35;99363.00;;;11.60
33877;BMP180;20166;51.738;7.158;2023-10-31T06:42:22;99375.00;;;11.60
33877;BMP180;20166;51.738;7.158;2023-10-31T06:45:08;99374.00;;;11.60
33877;BMP180;20166;51.738;7.158;2023-10-31T06:47:55;99375.00;;;11.50
33877;BMP180;20166;51.738;7.158;2023-10-31T06:50:43;99384.00;;;11.60
33877;BMP180;20166;51.738;7.158;2023-10-31T06:53:29;99385.00;;;11.60
33877;BMP180;20166;51.738;7.158;2023-10-31T06:56:16;99385.00;;;11.60
33877;BMP180;20166;51.738;7.158;2023-10-31T06:59:02;99392.00;;;11.60
33877;BMP180;20166;51.738;7.158;2023-10-31T07:01:49;99397.00;;;11.70
33877;BMP180;20166;51.738;7.158;2023-10-31T07:04:35;99396.00;;;11.70
33877;BMP180;20166;51.738;7.158;2023-10-31T07:07:23;99402.00;;;11.70
33877;BMP180;20166;51.738;7.158;2023-10-31T07:10:10;99395.00;;;11.80
33877;BMP180;20166;51.738;7.158;2023-10-31T07:12:56;99405.00;;;11.80
33877;BMP180;20166;51.738;7.158;2023-10-31T07:15:44;99409.00;;;11.90
33877;BMP180;20166;51.738;7.158;2023-10-31T07:18:31;99405.00;;;11.80
33877;BMP180;20166;51.738;7.158;2023-10-31T07:21:18;99405.00;;;11.90
33877;BMP180;20166;51.738;7.158;2023-10-31T07:24:07;99404.00;;;11.80
33877;BMP180;20166;51.738;7.158;2023-10-31T07:26:54;99397.00;;;11.80
33877;BMP180;20166;51.738;7.158;2023-10-31T07:29:43;99398.00;;;11.90
33877;BMP180;20166;51.738;7.158;2023-10-31T07:32:31;99404.00;;;11.90
33877;BMP180;20166;51.738;7.158;2023-10-31T07:35:18;99409.00;;;12.00
33877;BMP180;20166;51.738;7.158;2023-10-31T07:38:05;99409.00;;;12.00
33877;BMP180;20166;51.738;7.158;2023-10-31T07:40:53;99421.00;;;12.10
33877;BMP180;20166;51.738;7.158;2023-10-31T07:43:39;99414.00;;;12.20
33877;BMP180;20166;51.738;7.158;2023-10-31T07:46:25;99416.00;;;12.20
33877;BMP180;20166;51.738;7.158;2023-10-31T07:49:12;99418.00;;;12.30
33877;BMP180;20166;51.738;7.158;2023-10-31T07:51:58;99423.00;;;12.10
33877;BMP180;20166;51.738;7.158;2023-10-31T07:54:45;99432.00;;;12.10
33877;BMP180;20166;51.738;7.158;2023-10-31T07:57:33;99430.00;;;12.20
33877;BMP180;20166;51.738;7.158;2023-10-31T08:00:20;99432.00;;;12.20
33877;BMP180;20166;51.738;7.158;2023-10-31T08:03:06;99427.00;;;12.20
33877;BMP180;20166;51.738;7.158;2023-10-31T08:05:53;99439.00;;;12.20
33877;BMP180;20166;51.738;7.158;2023-10-31T08:08:40;99445.00;;;12.30
33877;BMP180;20166;51.738;7.158;2023-10-31T08:11:26;99450.00;;;12.30
33877;BMP180;20166;51.738;7.158;2023-10-31T08:14:14;99438.00;;;12.40
33877;BMP180;20166;51.738;7.158;2023-10-31T08:17:01;99447.00;;;12.40
33877;BMP180;20166;51.738;7.158;2023-10-31T08:19:47;99441.00;;;12.50
33877;BMP180;20166;51.738;7.158;2023-10-31T08:22:33;99447.00;;;12.60
33877;BMP180;20166;51.738;7.158;2023-10-31T08:25:20;99453.00;;;12.60
33877;BMP180;20166;51.738;7.158;2023-10-31T08:28:07;99451.00;;;12.50
33877;BMP180;20166;51.738;7.158;2023-10-31T08:30:55;99450.00;;;12.60
33877;BMP180;20166;51.738;7.158;2023-10-31T08:33:44;99445.00;;;12.50
33877;BMP180;20166;51.738;7.158;2023-10-31T08:36:30;99446.00;;;12.50
33877;BMP180;20166;51.738;7.158;2023-10-31T08:39:17;99447.00;;;12.60
33877;BMP180;20166;51.738;7.158;2023-10-31T08:42:03;99458.00;;;12.60
33877;BMP180;20166;51.738;7.158;2023-10-31T08:44:51;99461.00;;;12.70
33877;BMP180;20166;51.738;7.158;2023-10-31T08:47:38;99467.00;;;12.70
33877;BMP180;20166;51.738;7.158;2023-10-31T08:50:25;99475.00;;;12.60
33877;BMP180;20166;51.738;7.158;2023-10-31T08:53:11;99478.00;;;12.60
33877;BMP180;20166;51.738;7.158;2023-10-31T08:55:58;99480.00;;;12.50
33877;BMP180;20166;51.738;7.158;2023-10-31T08:58:44;99493.00;;;12.60
33877;BMP180;20166;51.738;7.158;2023-10-31T09:01:31;99495.00;;;12.60
33877;BMP180;20166;51.738;7.158;2023-10-31T09:04:20;99490.00;;;12.70
33877;BMP180;20166;51.738;7.158;2023-10-31T09:07:06;99503.00;;;12.60
33877;BMP180;20166;51.738;7.158;2023-10-31T09:09:52;99493.00;;;12.80
33877;BMP180;20166;51.738;7.158;2023-10-31T09:12:39;99516.00;;;12.70
33877;BMP180;20166;51.738;7.158;2023-10-31T09:15:26;99518.00;;;12.80
33877;BMP180;20166;51.738;7.158;2023-10-31T09:18:12;99513.00;;;12.80
33877;BMP180;20166;51.738;7.158;2023-10-31T09:21:00;99514.00;;;12.90
33877;BMP180;20166;51.738;7.158;2023-10-31T09:23:47;99526.00;;;13.00
33877;BMP180;20166;51.738;7.158;2023-10-31T09:26:33;99527.00;;;13.00
33877;BMP180;20166;51.738;7.158;2023-10-31T09:29:20;99535.00;;;13.10
33877;BMP180;20166;51.738;7.158;2023-10-31T09:32:14;99547.00;;;13.10
33877;BMP180;20166;51.738;7.158;2023-10-31T09:35:01;99545.00;;;13.10
33877;BMP180;20166;51.738;7.158;2023-10-31T09:37:49;99546.00;;;13.10
33877;BMP180;20166;51.738;7.158;2023-10-31T09:40:36;99556.00;;;13.10
33877;BMP180;20166;51.738;7.158;2023-10-31T09:43:23;99562.00;;;13.10
33877;BMP180;20166;51.738;7.158;2023-10-31T09:46:10;99561.00;;;13.10
33877;BMP180;20166;51.738;7.158;2023-10-31T09:48:56;99568.00;;;13.20
33877;BMP180;20166;51.738;7.158;2023-10-31T09:51:43;99563.00;;;13.30
33877;BMP180;20166;51.738;7.158;2023-10-31T09:54:33;99569.00;;;13.40
33877;BMP180;20166;51.738;7.158;2023-10-31T09:57:19;99577.00;;;13.40
33877;BMP180;20166;51.738;7.158;2023-10-31T10:00:07;99578.00;;;13.40
33877;BMP180;20166;51.738;7.158;2023-10-31T10:02:55;99584.00;;;13.50
33877;BMP180;20166;51.738;7.158;2023-10-31T10:05:44;99589.00;;;13.50
33877;BMP180;20166;51.738;7.158;2023-10-31T10:08:30;99594.00;;;13.60
33877;BMP180;20166;51.738;7.158;2023-10-31T10:11:18;99613.00;;;13.60
33877;BMP180;20166;51.738;7.158;2023-10-31T10:14:05;99601.00;;;13.50
33877;BMP180;20166;51.738;7.158;2023-10-31T10:16:55;99598.00;;;13.40
33877;BMP180;20166;51.738;7.158;2023-10-31T10:19:43;99616.00;;;13.40
33877;BMP180;20166;51.738;7.158;2023-10-31T10:22:29;99629.00;;;13.50
33877;BMP180;20166;51.738;7.158;2023-10-31T10:25:17;99628.00;;;13.50
33877;BMP180;20166;51.738;7.158;2023-10-31T10:28:06;99622.00;;;13.50
33877;BMP180;20166;51.738;7.158;2023-10-31T10:30:57;99640.00;;;13.50
33877;BMP180;20166;51.738;7.158;2023-10-31T10:33:45;99632.00;;;13.40
33877;BMP180;20166;51.738;7.158;2023-10-31T10:36:32;99644.00;;;13.30
33877;BMP180;20166;51.738;7.158;2023-10-31T10:39:21;99643.00;;;13.30
33877;BMP180;20166;51.738;7.158;2023-10-31T10:42:10;99642.00;;;13.20
33877;BMP180;20166;51.738;7.158;2023-10-31T10:45:02;99651.00;;;13.30
33877;BMP180;20166;51.738;7.158;2023-10-31T10:47:49;99655.00;;;13.40
33877;BMP180;20166;51.738;7.158;2023-10-31T10:50:39;99643.00;;;13.50
33877;BMP180;20166;51.738;7.158;2023-10-31T10:53:30;99653.00;;;13.60
33877;BMP180;20166;51.738;7.158;2023-10-31T10:56:23;99647.00;;;13.60
33877;BMP180;20166;51.738;7.158;2023-10-31T10:59:14;99656.00;;;13.60
33877;BMP180;20166;51.738;7.158;2023-10-31T11:02:05;99659.00;;;13.70
33877;BMP180;20166;51.738;7.158;2023-10-31T11:04:53;99665.00;;;13.70
33877;BMP180;20166;51.738;7.158;2023-10-31T11:07:40;99670.00;;;13.70
33877;BMP180;20166;51.738;7.158;2023-10-31T11:10:27;99668.00;;;13.60
33877;BMP180;20166;51.738;7.158;2023-10-31T11:13:14;99670.00;;;13.60
33877;BMP180;20166;51.738;7.158;2023-10-31T11:16:06;99662.00;;;13.60
33877;BMP180;20166;51.738;7.158;2023-10-31T11:18:56;99674.00;;;13.60
33877;BMP180;20166;51.738;7.158;2023-10-31T11:21:53;99675.00;;;13.50
33877;BMP180;20166;51.738;7.158;2023-10-31T11:24:41;99673.00;;;13.50
33877;BMP180;20166;51.738;7.158;2023-10-31T11:27:28;99678.00;;;13.50
33877;BMP180;20166;51.738;7.158;2023-10-31T11:30:22;99673.00;;;13.60
33877;BMP180;20166;51.738;7.158;2023-10-31T11:33:14;99684.00;;;13.60
33877;BMP180;20166;51.738;7.158;2023-10-31T11:36:03;99684.00;;;13.60
33877;BMP180;20166;51.738;7.158;2023-10-31T11:38:49;99689.00;;;13.60
33877;BMP180;20166;51.738;7.158;2023-10-31T11:41:55;99694.00;;;13.60
33877;BMP180;20166;51.738;7.158;2023-10-31T11:44:55;99690.00;;;13.60
33877;BMP180;20166;51.738;7.158;2023-10-31T11:47:45;99696.00;;;13.50
33877;BMP180;20166;51.738;7.158;2023-10-31T11:50:32;99699.00;;;13.50
33877;BMP180;20166;51.738;7.158;2023-10-31T11:53:20;99692.00;;;13.40
33877;BMP180;20166;51.738;7.158;2023-10-31T11:56:09;99701.00;;;13.40
33877;BMP180;20166;51.738;7.158;2023-10-31T11:58:57;99698.00;;;13.40
33877;BMP180;20166;51.738;7.158;2023-10-31T12:01:44;99705.00;;;13.40
33877;BMP180;20166;51.738;7.158;2023-10-31T12:04:31;99703.00;;;13.40
33877;BMP180;20166;51.738;7.158;2023-10-31T12:07:18;99712.00;;;13.50
33877;BMP180;20166;51.738;7.158;2023-10-31T12:10:07;99710.00;;;13.50
33877;BMP180;20166;51.738;7.158;2023-10-31T12:12:54;99721.00;;;13.70
33877;BMP180;20166;51.738;7.158;2023-10-31T12:15:51;99720.00;;;13.80
33877;BMP180;20166;51.738;7.158;2023-10-31T12:18:38;99722.00;;;13.90
33877;BMP180;20166;51.738;7.158;2023-10-31T12:21:36;99719.00;;;13.90
33877;BMP180;20166;51.738;7.158;2023-10-31T12:24:22;99718.00;;;13.80
33877;BMP180;20166;51.738;7.158;2023-10-31T12:27:10;99736.00;;;13.90
33877;BMP180;20166;51.738;7.158;2023-10-31T12:30:00;99735.00;;;14.00
33877;BMP180;20166;51.738;7.158;2023-10-31T12:32:53;99743.00;;;13.90
33877;BMP180;20166;51.738;7.158;2023-10-31T12:35:40;99738.00;;;14.00
33877;BMP180;20166;51.738;7.158;2023-10-31T12:38:27;99738.00;;;14.10
33877;BMP180;20166;51.738;7.158;2023-10-31T12:41:15;99737.00;;;14.20
33877;BMP180;20166;51.738;7.158;2023-10-31T12:44:06;99747.00;;;14.30
33877;BMP180;20166;51.738;7.158;2023-10-31T12:46:55;99735.00;;;14.40
33877;BMP180;20166;51.738;7.158;2023-10-31T12:49:41;99732.00;;;14.50
33877;BMP180;20166;51.738;7.158;2023-10-31T12:52:45;99730.00;;;14.50
33877;BMP180;20166;51.738;7.158;2023-10-31T12:55:37;99741.00;;;14.40
33877;BMP180;20166;51.738;7.158;2023-10-31T12:58:24;99740.00;;;14.30
33877;BMP180;20166;51.738;7.158;2023-10-31T13:01:12;99742.00;;;14.20
33877;BMP180;20166;51.738;7.158;2023-10-31T13:03:58;99738.00;;;14.10
33877;BMP180;20166;51.738;7.158;2023-10-31T13:06:55;99741.00;;;14.00
33877;BMP180;20166;51.738;7.158;2023-10-31T13:09:41;99741.00;;;13.90
33877;BMP180;20166;51.738;7.158;2023-10-31T13:12:30;99747.00;;;13.90
33877;BMP180;20166;51.738;7.158;2023-10-31T13:15:17;99748.00;;;13.90
33877;BMP180;20166;51.738;7.158;2023-10-31T13:18:06;99750.00;;;13.80
33877;BMP180;20166;51.738;7.158;2023-10-31T13:20:56;99751.00;;;13.80
33877;BMP180;20166;51.738;7.158;2023-10-31T13:23:42;99749.00;;;13.80
33877;BMP180;20166;51.738;7.158;2023-10-31T13:26:30;99751.00;;;13.80
33877;BMP180;20166;51.738;7.158;2023-10-31T13:29:16;99760.00;;;13.90
33877;BMP180;20166;51.738;7.158;2023-10-31T13:32:03;99760.00;;;13.70
33877;BMP180;20166;51.738;7.158;2023-10-31T13:34:51;99760.00;;;13.80
33877;BMP180;20166;51.738;7.158;2023-10-31T13:37:38;99749.00;;;13.80
33877;BMP180;20166;51.738;7.158;2023-10-31T13:40:24;99757.00;;;13.80
33877;BMP180;20166;51.738;7.158;2023-10-31T13:43:11;99737.00;;;13.80
33877;BMP180;20166;51.738;7.158;2023-10-31T13:45:57;99736.00;;;13.80
33877;BMP180;20166;51.738;7.158;2023-10-31T13:48:44;99741.00;;;13.80
33877;BMP180;20166;51.738;7.158;2023-10-31T13:51:31;99740.00;;;13.80
33877;BMP180;20166;51.738;7.158;2023-10-31T13:54:18;99746.00;;;13.80
33877;BMP180;20166;51.738;7.158;2023-10-31T13:57:05;99751.00;;;13.80
33877;BMP180;20166;51.738;7.158;2023-10-31T13:59:51;99758.00;;;13.90
33877;BMP180;20166;51.738;7.158;2023-10-31T14:02:39;99755.00;;;13.90
33877;BMP180;20166;51.738;7.158;2023-10-31T14:05:25;99758.00;;;13.90
33877;BMP180;20166;51.738;7.158;2023-10-31T14:08:14;99768.00;;;13.90
33877;BMP180;20166;51.738;7.158;2023-10-31T14:11:00;99760.00;;;14.00
33877;BMP180;20166;51.738;7.158;2023-10-31T14:13:48;99775.00;;;14.00
33877;BMP180;20166;51.738;7.158;2023-10-31T14:16:35;99776.00;;;14.00
33877;BMP180;20166;51.738;7.158;2023-10-31T14:19:22;99767.00;;;13.90
33877;BMP180;20166;51.738;7.158;2023-10-31T14:22:08;99772.00;;;13.80
33877;BMP180;20166;51.738;7.158;2023-10-31T14:24:56;99775.00;;;13.70
33877;BMP180;20166;51.738;7.158;2023-10-31T14:27:43;99764.00;;;13.70
33877;BMP180;20166;51.738;7.158;2023-10-31T14:30:30;99777.00;;;13.70
33877;BMP180;20166;51.738;7.158;2023-10-31T14:33:16;99775.00;;;13.60
33877;BMP180;20166;51.738;7.158;2023-10-31T14:36:03;99781.00;;;13.60
33877;BMP180;20166;51.738;7.158;2023-10-31T14:38:49;99783.00;;;13.50
33877;BMP180;20166;51.738;7.158;2023-10-31T14:41:37;99788.00;;;13.50
33877;BMP180;20166;51.738;7.158;2023-10-31T14:44:23;99788.00;;;13.50
33877;BMP180;20166;51.738;7.158;2023-10-31T14:47:10;99796.00;;;13.50
33877;BMP180;20166;51.738;7.158;2023-10-31T14:49:58;99803.00;;;13.50
33877;BMP180;20166;51.738;7.158;2023-10-31T14:52:45;99795.00;;;13.50
33877;BMP180;20166;51.738;7.158;2023-10-31T14:55:31;99802.00;;;13.40
33877;BMP180;20166;51.738;7.158;2023-10-31T14:58:19;99809.00;;;13.50
33877;BMP180;20166;51.738;7.158;2023-10-31T15:01:06;99807.00;;;13.40
33877;BMP180;20166;51.738;7.158;2023-10-31T15:03:52;99803.00;;;13.50
33877;BMP180;20166;51.738;7.158;2023-10-31T15:06:39;99821.00;;;13.50
33877;BMP180;20166;51.738;7.158;2023-10-31T15:09:25;99813.00;;;13.50
33877;BMP180;20166;51.738;7.158;2023-10-31T15:12:12;99825.00;;;13.50
33877;BMP180;20166;51.738;7.158;2023-10-31T15:14:59;99831.00;;;13.40
33877;BMP180;20166;51.738;7.158;2023-10-31T15:17:46;99834.00;;;13.40
33877;BMP180;20166;51.738;7.158;2023-10-31T15:20:33;99839.00;;;13.40
33877;BMP180;20166;51.738;7.158;2023-10-31T15:23:20;99846.00;;;13.40
33877;BMP180;20166;51.738;7.158;2023-10-31T15:26:06;99845.00;;;13.40
33877;BMP180;20166;51.738;7.158;2023-10-31T15:28:57;99843.00;;;13.40
33877;BMP180;20166;51.738;7.158;2023-10-31T15:31:45;99844.00;;;13.40
33877;BMP180;20166;51.738;7.158;2023-10-31T15:34:32;99857.00;;;13.30
33877;BMP180;20166;51.738;7.158;2023-10-31T15:37:19;99860.00;;;13.20
33877;BMP180;20166;51.738;7.158;2023-10-31T15:40:07;99867.00;;;13.20
33877;BMP180;20166;51.738;7.158;2023-10-31T15:42:54;99869.00;;;13.00
33877;BMP180;20166;51.738;7.158;2023-10-31T15:45:40;99864.00;;;13.10
33877;BMP180;20166;51.738;7.158;2023-10-31T15:48:28;99866.00;;;13.00
33877;BMP180;20166;51.738;7.158;2023-10-31T15:51:15;99875.00;;;13.00
33877;BMP180;20166;51.738;7.158;2023-10-31T15:54:01;99878.00;;;12.90
33877;BMP180;20166;51.738;7.158;2023-10-31T15:56:51;99876.00;;;12.80
33877;BMP180;20166;51.738;7.158;2023-10-31T15:59:38;99874.00;;;12.70
33877;BMP180;20166;51.738;7.158;2023-10-31T16:02:25;99875.00;;;12.60
33877;BMP180;20166;51.738;7.158;2023-10-31T16:05:13;99871.00;;;12.60